sensor_id;sensor_type;location;lat;lon;timestamp;pressure;altitude;pressure_sealevel;temperature;humidity
62011;BME280;47967;51.756;10.174;2023-03-14T05:03:59;97238.75;;;11.13;71.35
62011;BME280;47967;51.756;10.174;2023-03-14T05:08:12;97242.50;;;11.12;71.76
62011;BME280;47967;51.756;10.174;2023-03-14T05:12:34;97239.81;;;11.07;72.23
62011;BME280;47967;51.756;10.174;2023-03-14T05:16:53;97239.28;;;11.10;72.42
62011;BME280;47967;51.756;10.174;2023-03-14T05:21:21;97243.84;;;11.09;72.83
62011;BME280;47967;51.756;10.174;2023-03-14T05:25:44;97235.47;;;11.11;72.97
62011;BME280;47967;51.756;10.174;2023-03-14T05:30:11;97238.75;;;11.13;73.13
62011;BME280;47967;51.756;10.174;2023-03-14T05:34:41;97256.81;;;11.12;73.22
62011;BME280;47967;51.756;10.174;2023-03-14T05:39:08;97252.72;;;10.89;73.81
62011;BME280;47967;51.756;10.174;2023-03-14T05:43:20;97294.34;;;10.18;78.02
62011;BME280;47967;51.756;10.174;2023-03-14T05:47:42;97291.81;;;9.68;80.80
62011;BME280;47967;51.756;10.174;2023-03-14T05:51:54;97266.16;;;9.60;80.62
62011;BME280;47967;51.756;10.174;2023-03-14T05:56:11;97252.81;;;9.43;79.67
62011;BME280;47967;51.756;10.174;2023-03-14T06:00:37;97244.00;;;9.21;79.45
62011;BME280;47967;51.756;10.174;2023-03-14T06:04:53;97252.97;;;9.04;80.81
62011;BME280;47967;51.756;10.174;2023-03-14T06:08:56;97253.44;;;8.96;82.21
62011;BME280;47967;51.756;10.174;2023-03-14T06:13:00;97257.53;;;9.04;84.43
62011;BME280;47967;51.756;10.174;2023-03-14T06:17:05;97254.31;;;9.29;84.67
62011;BME280;47967;51.756;10.174;2023-03-14T06:21:15;97257.00;;;9.29;85.13
62011;BME280;47967;51.756;10.174;2023-03-14T06:25:20;97272.81;;;9.53;84.69
62011;BME280;47967;51.756;10.174;2023-03-14T06:29:25;97276.38;;;9.91;83.51
62011;BME280;47967;51.756;10.174;2023-03-14T06:33:28;97266.25;;;10.03;82.69
62011;BME280;47967;51.756;10.174;2023-03-14T06:37:31;97269.81;;;10.14;82.27
62011;BME280;47967;51.756;10.174;2023-03-14T06:41:34;97267.16;;;10.19;81.93
62011;BME280;47967;51.756;10.174;2023-03-14T06:45:38;97264.53;;;10.30;81.25
62011;BME280;47967;51.756;10.174;2023-03-14T06:49:41;97255.72;;;10.39;80.52
62011;BME280;47967;51.756;10.174;2023-03-14T06:53:43;97252.53;;;10.48;79.53
62011;BME280;47967;51.756;10.174;2023-03-14T06:57:48;97241.53;;;10.60;78.26
62011;BME280;47967;51.756;10.174;2023-03-14T07:01:53;97241.78;;;10.58;77.39
62011;BME280;47967;51.756;10.174;2023-03-14T07:05:55;97229.41;;;10.62;76.32
62011;BME280;47967;51.756;10.174;2023-03-14T07:09:58;97234.56;;;10.69;76.15
62011;BME280;47967;51.756;10.174;2023-03-14T07:14:02;97236.75;;;10.77;75.47
62011;BME280;47967;51.756;10.174;2023-03-14T07:18:07;97228.44;;;10.94;74.03
62011;BME280;47967;51.756;10.174;2023-03-14T07:22:09;97226.84;;;11.03;73.24
62011;BME280;47967;51.756;10.174;2023-03-14T07:26:12;97230.38;;;11.09;73.07
62011;BME280;47967;51.756;10.174;2023-03-14T07:30:20;97234.69;;;11.10;71.92
62011;BME280;47967;51.756;10.174;2023-03-14T07:34:25;97236.63;;;11.35;71.19
62011;BME280;47967;51.756;10.174;2023-03-14T07:38:29;97222.06;;;11.36;70.80
62011;BME280;47967;51.756;10.174;2023-03-14T07:42:56;97219.91;;;11.54;70.99
62011;BME280;47967;51.756;10.174;2023-03-14T07:47:02;97218.84;;;11.55;70.90
62011;BME280;47967;51.756;10.174;2023-03-14T07:51:06;97222.63;;;11.49;70.82
62011;BME280;47967;51.756;10.174;2023-03-14T07:55:09;97226.38;;;11.58;70.84
62011;BME280;47967;51.756;10.174;2023-03-14T07:59:14;97224.78;;;11.62;70.35
62011;BME280;47967;51.756;10.174;2023-03-14T08:03:17;97222.88;;;11.63;69.77
62011;BME280;47967;51.756;10.174;2023-03-14T08:07:21;97224.50;;;11.69;70.36
62011;BME280;47967;51.756;10.174;2023-03-14T08:11:24;97221.25;;;11.93;70.18
62011;BME280;47967;51.756;10.174;2023-03-14T08:15:28;97219.91;;;11.90;69.47
62011;BME280;47967;51.756;10.174;2023-03-14T08:19:31;97207.47;;;11.94;68.57
62011;BME280;47967;51.756;10.174;2023-03-14T08:23:35;97214.22;;;12.17;69.22
62011;BME280;47967;51.756;10.174;2023-03-14T08:27:37;97216.94;;;12.02;69.39
62011;BME280;47967;51.756;10.174;2023-03-14T08:31:40;97223.97;;;12.03;68.33
62011;BME280;47967;51.756;10.174;2023-03-14T08:35:43;97226.38;;;12.15;68.18
62011;BME280;47967;51.756;10.174;2023-03-14T08:39:47;97225.00;;;12.28;67.16
62011;BME280;47967;51.756;10.174;2023-03-14T08:43:49;97226.78;;;12.58;67.30
62011;BME280;47967;51.756;10.174;2023-03-14T08:47:52;97214.38;;;12.57;66.19
62011;BME280;47967;51.756;10.174;2023-03-14T08:51:54;97209.78;;;12.53;66.46
62011;BME280;47967;51.756;10.174;2023-03-14T08:55:58;97219.78;;;12.52;66.43
62011;BME280;47967;51.756;10.174;2023-03-14T09:00:01;97228.50;;;12.28;67.05
62011;BME280;47967;51.756;10.174;2023-03-14T09:04:06;97228.81;;;12.11;67.45
62011;BME280;47967;51.756;10.174;2023-03-14T09:08:09;97231.75;;;12.30;68.02
62011;BME280;47967;51.756;10.174;2023-03-14T09:12:13;97216.88;;;12.38;68.45
62011;BME280;47967;51.756;10.174;2023-03-14T09:16:15;97221.91;;;12.60;67.99
62011;BME280;47967;51.756;10.174;2023-03-14T09:20:18;97222.44;;;12.68;67.53
62011;BME280;47967;51.756;10.174;2023-03-14T09:24:21;97225.19;;;12.57;67.04
62011;BME280;47967;51.756;10.174;2023-03-14T09:28:25;97234.28;;;12.82;66.93
62011;BME280;47967;51.756;10.174;2023-03-14T09:32:28;97238.00;;;12.96;65.87
62011;BME280;47967;51.756;10.174;2023-03-14T09:36:32;97233.06;;;13.09;66.50
62011;BME280;47967;51.756;10.174;2023-03-14T09:40:36;97228.78;;;13.03;65.76
62011;BME280;47967;51.756;10.174;2023-03-14T09:44:47;97228.88;;;13.32;64.72
62011;BME280;47967;51.756;10.174;2023-03-14T09:48:53;97232.25;;;13.13;64.42
62011;BME280;47967;51.756;10.174;2023-03-14T09:52:59;97228.41;;;13.65;64.87
62011;BME280;47967;51.756;10.174;2023-03-14T09:57:05;97230.38;;;13.54;63.98
62011;BME280;47967;51.756;10.174;2023-03-14T10:01:11;97227.53;;;13.29;65.06
62011;BME280;47967;51.756;10.174;2023-03-14T10:05:18;97224.22;;;12.93;65.33
62011;BME280;47967;51.756;10.174;2023-03-14T10:09:22;97224.75;;;13.00;65.05
62011;BME280;47967;51.756;10.174;2023-03-14T10:13:27;97235.16;;;13.22;65.59
62011;BME280;47967;51.756;10.174;2023-03-14T10:17:38;97225.59;;;13.40;65.59
62011;BME280;47967;51.756;10.174;2023-03-14T10:21:42;97218.84;;;13.33;65.82
62011;BME280;47967;51.756;10.174;2023-03-14T10:25:59;97225.25;;;13.02;65.55
62011;BME280;47967;51.756;10.174;2023-03-14T10:30:04;97235.69;;;12.74;68.21
62011;BME280;47967;51.756;10.174;2023-03-14T10:34:16;97237.34;;;12.65;67.54
62011;BME280;47967;51.756;10.174;2023-03-14T10:38:19;97236.53;;;12.59;69.74
62011;BME280;47967;51.756;10.174;2023-03-14T10:42:24;97243.78;;;12.74;71.07
62011;BME280;47967;51.756;10.174;2023-03-14T10:46:32;97234.44;;;13.06;69.42
62011;BME280;47967;51.756;10.174;2023-03-14T10:50:57;97235.72;;;13.19;68.17
62011;BME280;47967;51.756;10.174;2023-03-14T10:55:10;97235.75;;;13.59;68.55
62011;BME280;47967;51.756;10.174;2023-03-14T10:59:14;97237.28;;;13.31;69.63
62011;BME280;47967;51.756;10.174;2023-03-14T11:03:18;97234.13;;;13.58;68.32
62011;BME280;47967;51.756;10.174;2023-03-14T11:07:27;97230.44;;;13.43;68.39
62011;BME280;47967;51.756;10.174;2023-03-14T11:11:33;97228.41;;;13.20;68.76
62011;BME280;47967;51.756;10.174;2023-03-14T11:15:37;97242.44;;;12.77;69.52
62011;BME280;47967;51.756;10.174;2023-03-14T11:19:53;97237.16;;;13.06;71.13
62011;BME280;47967;51.756;10.174;2023-03-14T11:24:12;97237.63;;;13.64;70.68
62011;BME280;47967;51.756;10.174;2023-03-14T11:28:18;97244.97;;;13.92;69.60
62011;BME280;47967;51.756;10.174;2023-03-14T11:32:38;97225.75;;;13.89;68.64
62011;BME280;47967;51.756;10.174;2023-03-14T11:36:48;97236.59;;;13.54;70.24
62011;BME280;47967;51.756;10.174;2023-03-14T11:40:56;97235.81;;;13.49;69.73
62011;BME280;47967;51.756;10.174;2023-03-14T11:45:00;97222.13;;;13.99;69.17
62011;BME280;47967;51.756;10.174;2023-03-14T11:49:06;97220.91;;;14.15;69.12
62011;BME280;47967;51.756;10.174;2023-03-14T11:53:16;97217.75;;;14.32;68.02
62011;BME280;47967;51.756;10.174;2023-03-14T11:57:23;97207.06;;;14.17;68.17
62011;BME280;47967;51.756;10.174;2023-03-14T12:01:34;97202.00;;;13.81;67.64
62011;BME280;47967;51.756;10.174;2023-03-14T12:05:56;97201.44;;;13.49;68.04
62011;BME280;47967;51.756;10.174;2023-03-14T12:10:02;97207.00;;;13.63;68.46
62011;BME280;47967;51.756;10.174;2023-03-14T12:14:18;97221.22;;;13.84;68.12
62011;BME280;47967;51.756;10.174;2023-03-14T12:18:26;97212.16;;;13.20;69.10
62011;BME280;47967;51.756;10.174;2023-03-14T12:22:33;97226.94;;;12.93;71.48
62011;BME280;47967;51.756;10.174;2023-03-14T12:26:46;97239.47;;;12.73;73.50
62011;BME280;47967;51.756;10.174;2023-03-14T12:30:52;97278.78;;;12.40;76.32
62011;BME280;47967;51.756;10.174;2023-03-14T12:34:54;97390.75;;;10.38;78.65
62011;BME280;47967;51.756;10.174;2023-03-14T12:39:22;97352.44;;;8.60;89.57
62011;BME280;47967;51.756;10.174;2023-03-14T12:43:29;97396.53;;;8.13;92.02
62011;BME280;47967;51.756;10.174;2023-03-14T12:47:51;97404.28;;;7.63;95.82
62011;BME280;47967;51.756;10.174;2023-03-14T12:51:58;97451.63;;;7.29;97.49
62011;BME280;47967;51.756;10.174;2023-03-14T12:56:06;97460.63;;;6.87;98.81
62011;BME280;47967;51.756;10.174;2023-03-14T13:00:18;97470.88;;;6.54;98.39
62011;BME280;47967;51.756;10.174;2023-03-14T13:04:29;97511.50;;;6.51;97.35
62011;BME280;47967;51.756;10.174;2023-03-14T13:08:42;97555.16;;;6.09;94.38
62011;BME280;47967;51.756;10.174;2023-03-14T13:12:49;97576.16;;;5.69;92.62
62011;BME280;47967;51.756;10.174;2023-03-14T13:16:52;97597.66;;;5.62;92.27
62011;BME280;47967;51.756;10.174;2023-03-14T13:20:58;97625.06;;;5.57;92.53
62011;BME280;47967;51.756;10.174;2023-03-14T13:25:05;97631.38;;;5.44;93.02
62011;BME280;47967;51.756;10.174;2023-03-14T13:29:09;97670.44;;;5.20;92.52
62011;BME280;47967;51.756;10.174;2023-03-14T13:33:18;97693.66;;;4.88;91.51
62011;BME280;47967;51.756;10.174;2023-03-14T13:37:24;97710.47;;;4.56;91.62
62011;BME280;47967;51.756;10.174;2023-03-14T13:41:27;97715.50;;;4.32;91.97
62011;BME280;47967;51.756;10.174;2023-03-14T13:45:30;97763.00;;;3.97;92.06
62011;BME280;47967;51.756;10.174;2023-03-14T13:49:33;97778.81;;;3.85;91.37
62011;BME280;47967;51.756;10.174;2023-03-14T13:53:44;97767.06;;;4.20;92.39
62011;BME280;47967;51.756;10.174;2023-03-14T13:57:48;97801.78;;;4.06;91.16
62011;BME280;47967;51.756;10.174;2023-03-14T14:01:53;97862.97;;;4.08;92.25
62011;BME280;47967;51.756;10.174;2023-03-14T14:05:57;97904.13;;;3.58;90.57
62011;BME280;47967;51.756;10.174;2023-03-14T14:10:01;97888.97;;;3.65;91.16
62011;BME280;47967;51.756;10.174;2023-03-14T14:14:06;97889.34;;;3.49;90.87
62011;BME280;47967;51.756;10.174;2023-03-14T14:18:15;97882.34;;;3.34;90.94
62011;BME280;47967;51.756;10.174;2023-03-14T14:22:19;97904.25;;;3.30;91.24
62011;BME280;47967;51.756;10.174;2023-03-14T14:26:23;97923.34;;;3.33;90.55
62011;BME280;47967;51.756;10.174;2023-03-14T14:30:31;97927.47;;;3.43;90.06
62011;BME280;47967;51.756;10.174;2023-03-14T14:34:39;97947.84;;;3.64;90.85
62011;BME280;47967;51.756;10.174;2023-03-14T14:38:42;97955.44;;;3.67;90.53
62011;BME280;47967;51.756;10.174;2023-03-14T14:42:52;97980.75;;;3.84;90.15
62011;BME280;47967;51.756;10.174;2023-03-14T14:46:55;97974.81;;;3.96;88.85
62011;BME280;47967;51.756;10.174;2023-03-14T14:51:02;97979.53;;;4.00;88.76
62011;BME280;47967;51.756;10.174;2023-03-14T14:55:12;98002.13;;;4.05;88.10
62011;BME280;47967;51.756;10.174;2023-03-14T14:59:22;98010.78;;;4.20;88.44
62011;BME280;47967;51.756;10.174;2023-03-14T15:03:28;98020.41;;;4.14;87.86
62011;BME280;47967;51.756;10.174;2023-03-14T15:07:31;98021.66;;;4.25;88.44
62011;BME280;47967;51.756;10.174;2023-03-14T15:11:34;98045.09;;;4.37;86.98
62011;BME280;47967;51.756;10.174;2023-03-14T15:15:38;98064.41;;;4.45;86.40
62011;BME280;47967;51.756;10.174;2023-03-14T15:19:40;98075.47;;;4.36;85.41
62011;BME280;47967;51.756;10.174;2023-03-14T15:23:43;98100.13;;;4.38;83.93
62011;BME280;47967;51.756;10.174;2023-03-14T15:27:45;98085.38;;;4.48;83.61
62011;BME280;47967;51.756;10.174;2023-03-14T15:31:49;98111.91;;;4.57;83.25
62011;BME280;47967;51.756;10.174;2023-03-14T15:35:53;98114.13;;;4.46;82.55
62011;BME280;47967;51.756;10.174;2023-03-14T15:39:56;98119.91;;;4.63;81.84
62011;BME280;47967;51.756;10.174;2023-03-14T15:43:59;98158.97;;;4.58;81.99
62011;BME280;47967;51.756;10.174;2023-03-14T15:48:03;98140.72;;;4.75;81.01
62011;BME280;47967;51.756;10.174;2023-03-14T15:52:06;98147.28;;;4.86;80.11
62011;BME280;47967;51.756;10.174;2023-03-14T15:56:12;98170.38;;;5.20;79.36
62011;BME280;47967;51.756;10.174;2023-03-14T16:00:17;98193.16;;;5.03;76.81
62011;BME280;47967;51.756;10.174;2023-03-14T16:04:21;98191.91;;;5.05;77.23
62011;BME280;47967;51.756;10.174;2023-03-14T16:08:24;98203.63;;;4.91;76.56
62011;BME280;47967;51.756;10.174;2023-03-14T16:12:27;98207.09;;;4.71;76.52
62011;BME280;47967;51.756;10.174;2023-03-14T16:16:30;98238.28;;;4.64;76.28
62011;BME280;47967;51.756;10.174;2023-03-14T16:20:33;98242.63;;;4.72;76.40
62011;BME280;47967;51.756;10.174;2023-03-14T16:24:48;98247.66;;;5.02;75.36
62011;BME280;47967;51.756;10.174;2023-03-14T16:28:51;98269.47;;;5.12;72.79
62011;BME280;47967;51.756;10.174;2023-03-14T16:32:54;98288.34;;;4.97;71.63
62011;BME280;47967;51.756;10.174;2023-03-14T16:37:00;98304.34;;;4.84;70.64
62011;BME280;47967;51.756;10.174;2023-03-14T16:41:03;98305.34;;;4.89;70.27
62011;BME280;47967;51.756;10.174;2023-03-14T16:45:08;98335.97;;;4.87;69.65
62011;BME280;47967;51.756;10.174;2023-03-14T16:49:10;98345.88;;;4.93;70.48
62011;BME280;47967;51.756;10.174;2023-03-14T16:53:14;98358.19;;;4.87;69.17
62011;BME280;47967;51.756;10.174;2023-03-14T16:57:16;98365.59;;;4.85;68.32
62011;BME280;47967;51.756;10.174;2023-03-14T17:01:19;98370.00;;;5.06;69.41
62011;BME280;47967;51.756;10.174;2023-03-14T17:05:22;98382.63;;;4.84;66.50
62011;BME280;47967;51.756;10.174;2023-03-14T17:09:26;98408.06;;;4.73;65.15
62011;BME280;47967;51.756;10.174;2023-03-14T17:13:31;98400.88;;;4.74;65.26
62011;BME280;47967;51.756;10.174;2023-03-14T17:17:33;98429.72;;;4.85;64.49
62011;BME280;47967;51.756;10.174;2023-03-14T17:21:36;98436.50;;;4.88;66.93
62011;BME280;47967;51.756;10.174;2023-03-14T17:25:40;98446.91;;;4.76;65.67
62011;BME280;47967;51.756;10.174;2023-03-14T17:29:42;98471.03;;;4.54;66.63
62011;BME280;47967;51.756;10.174;2023-03-14T17:33:45;98473.50;;;4.56;65.64
62011;BME280;47967;51.756;10.174;2023-03-14T17:37:47;98475.38;;;4.62;65.25
62011;BME280;47967;51.756;10.174;2023-03-14T17:41:51;98498.34;;;4.56;65.23
62011;BME280;47967;51.756;10.174;2023-03-14T17:45:57;98505.78;;;4.61;65.50
62011;BME280;47967;51.756;10.174;2023-03-14T17:50:00;98518.81;;;4.49;64.95
62011;BME280;47967;51.756;10.174;2023-03-14T17:54:05;98535.03;;;4.47;66.60
62011;BME280;47967;51.756;10.174;2023-03-14T17:58:09;98558.50;;;4.52;64.18
62011;BME280;47967;51.756;10.174;2023-03-14T18:02:13;98565.13;;;4.56;63.33
62011;BME280;47967;51.756;10.174;2023-03-14T18:06:16;98581.59;;;4.60;63.24
62011;BME280;47967;51.756;10.174;2023-03-14T18:10:19;98589.03;;;4.64;63.21
62011;BME280;47967;51.756;10.174;2023-03-14T18:14:23;98601.13;;;4.60;63.19
62011;BME280;47967;51.756;10.174;2023-03-14T18:18:26;98613.84;;;4.58;60.86
62011;BME280;47967;51.756;10.174;2023-03-14T18:22:30;98627.84;;;4.60;61.40
62011;BME280;47967;51.756;10.174;2023-03-14T18:26:33;98640.91;;;4.55;61.06
62011;BME280;47967;51.756;10.174;2023-03-14T18:30:37;98643.34;;;4.50;62.57
62011;BME280;47967;51.756;10.174;2023-03-14T18:34:40;98645.75;;;4.45;62.13
62011;BME280;47967;51.756;10.174;2023-03-14T18:38:43;98654.56;;;4.45;61.57
62011;BME280;47967;51.756;10.174;2023-03-14T18:42:46;98668.06;;;4.37;60.04
62011;BME280;47967;51.756;10.174;2023-03-14T18:46:50;98671.06;;;4.49;59.27
62011;BME280;47967;51.756;10.174;2023-03-14T18:50:53;98687.22;;;4.41;59.72
62011;BME280;47967;51.756;10.174;2023-03-14T18:54:55;98694.69;;;4.15;60.03
62011;BME280;47967;51.756;10.174;2023-03-14T18:58:58;98704.66;;;4.07;60.03
62011;BME280;47967;51.756;10.174;2023-03-14T19:03:03;98722.28;;;3.78;60.68
62011;BME280;47967;51.756;10.174;2023-03-14T19:07:05;98727.63;;;3.78;60.99
62011;BME280;47967;51.756;10.174;2023-03-14T19:11:09;98742.75;;;3.62;61.02
62011;BME280;47967;51.756;10.174;2023-03-14T19:15:12;98751.31;;;3.58;61.34
62011;BME280;47967;51.756;10.174;2023-03-14T19:19:16;98763.81;;;3.57;61.16
62011;BME280;47967;51.756;10.174;2023-03-14T19:23:18;98766.00;;;3.53;59.81
62011;BME280;47967;51.756;10.174;2023-03-14T19:27:24;98772.91;;;3.48;60.76
62011;BME280;47967;51.756;10.174;2023-03-14T19:31:27;98789.25;;;3.45;59.62
62011;BME280;47967;51.756;10.174;2023-03-14T19:35:31;98809.03;;;3.27;59.71
62011;BME280;47967;51.756;10.174;2023-03-14T19:39:34;98798.44;;;3.42;58.61
62011;BME280;47967;51.756;10.174;2023-03-14T19:43:36;98805.25;;;3.45;57.13
62011;BME280;47967;51.756;10.174;2023-03-14T19:47:39;98808.19;;;3.27;58.63
62011;BME280;47967;51.756;10.174;2023-03-14T19:51:43;98816.91;;;3.20;58.96
62011;BME280;47967;51.756;10.174;2023-03-14T19:55:45;98804.97;;;3.08;60.69
62011;BME280;47967;51.756;10.174;2023-03-14T19:59:49;98829.22;;;2.90;61.43
62011;BME280;47967;51.756;10.174;2023-03-14T20:03:51;98831.44;;;2.78;62.83
62011;BME280;47967;51.756;10.174;2023-03-14T20:07:55;98836.03;;;2.93;61.68
62011;BME280;47967;51.756;10.174;2023-03-14T20:11:58;98847.06;;;2.90;61.30
62011;BME280;47967;51.756;10.174;2023-03-14T20:16:01;98852.69;;;2.95;60.50
62011;BME280;47967;51.756;10.174;2023-03-14T20:20:06;98855.19;;;2.88;60.83
62011;BME280;47967;51.756;10.174;2023-03-14T20:24:11;98856.09;;;2.72;61.44
62011;BME280;47967;51.756;10.174;2023-03-14T20:28:14;98866.81;;;2.55;62.20
62011;BME280;47967;51.756;10.174;2023-03-14T20:32:16;98871.34;;;2.38;63.28
62011;BME280;47967;51.756;10.174;2023-03-14T20:36:20;98883.16;;;2.19;65.08
62011;BME280;47967;51.756;10.174;2023-03-14T20:40:24;98886.69;;;2.20;64.63
62011;BME280;47967;51.756;10.174;2023-03-14T20:44:28;98892.31;;;2.17;65.47
62011;BME280;47967;51.756;10.174;2023-03-14T20:48:31;98886.66;;;2.03;66.94
62011;BME280;47967;51.756;10.174;2023-03-14T20:52:34;98906.97;;;2.04;67.08
62011;BME280;47967;51.756;10.174;2023-03-14T20:56:38;98912.28;;;1.96;66.87
62011;BME280;47967;51.756;10.174;2023-03-14T21:00:45;98921.59;;;1.92;67.23
62011;BME280;47967;51.756;10.174;2023-03-14T21:04:48;98928.06;;;1.89;67.15
62011;BME280;47967;51.756;10.174;2023-03-14T21:08:50;98937.72;;;1.90;66.67
62011;BME280;47967;51.756;10.174;2023-03-14T21:12:54;98933.03;;;1.68;68.96
62011;BME280;47967;51.756;10.174;2023-03-14T21:16:57;98934.66;;;1.60;71.31
62011;BME280;47967;51.756;10.174;2023-03-14T21:21:00;98939.16;;;1.68;72.35
62011;BME280;47967;51.756;10.174;2023-03-14T21:25:03;98945.19;;;1.79;72.30
62011;BME280;47967;51.756;10.174;2023-03-14T21:29:07;98946.19;;;1.94;72.96
62011;BME280;47967;51.756;10.174;2023-03-14T21:33:10;98954.84;;;1.96;73.99
62011;BME280;47967;51.756;10.174;2023-03-14T21:37:13;98970.28;;;1.84;74.19
62011;BME280;47967;51.756;10.174;2023-03-14T21:41:16;98974.25;;;1.64;75.86
62011;BME280;47967;51.756;10.174;2023-03-14T21:45:20;98973.53;;;1.53;76.10
62011;BME280;47967;51.756;10.174;2023-03-14T21:49:26;98979.19;;;1.50;76.54
62011;BME280;47967;51.756;10.174;2023-03-14T21:53:28;98985.25;;;1.34;77.38
62011;BME280;47967;51.756;10.174;2023-03-14T21:57:32;98996.50;;;1.20;77.86
